Terminal Aerodrome Forecast
Issued by NWS

Home | Current Version | Previous Version | Text Only | Print | Product List | Glossary On
Versions: 1 2 3 4 5 6 7 8 9 10 11 12 13 14 15 16 17 18 19
000
FTUS41 KBGM 280538 AAA
TAFELM
TAF AMD
KELM 280538Z 2806/2906 25004KT P6SM SCT090
      TEMPO 2808/2812 1 1/2SM BR FEW002
     FM281400 27009KT P6SM SCT060
     FM282300 20006KT P6SM SCT200=

USA.gov is the U.S. government's official web portal to all federal, state and local government web resources and services.